sensor_id;sensor_type;location;lat;lon;timestamp;P1;durP1;ratioP1;P2;durP2;ratioP2
9789;SDS011;4934;50.852;8.098;2023-02-14T00:01:47;21.83;;;8.23;;
9789;SDS011;4934;50.852;8.098;2023-02-14T00:04:14;17.27;;;7.27;;
9789;SDS011;4934;50.852;8.098;2023-02-14T00:06:41;16.50;;;7.90;;
9789;SDS011;4934;50.852;8.098;2023-02-14T00:09:07;19.50;;;8.57;;
9789;SDS011;4934;50.852;8.098;2023-02-14T00:11:35;20.53;;;7.37;;
9789;SDS011;4934;50.852;8.098;2023-02-14T00:14:01;15.00;;;7.23;;
9789;SDS011;4934;50.852;8.098;2023-02-14T00:16:46;13.03;;;5.90;;
9789;SDS011;4934;50.852;8.098;2023-02-14T00:19:12;15.60;;;6.63;;
9789;SDS011;4934;50.852;8.098;2023-02-14T00:21:39;16.83;;;6.57;;
9789;SDS011;4934;50.852;8.098;2023-02-14T00:24:06;17.83;;;6.73;;
9789;SDS011;4934;50.852;8.098;2023-02-14T00:29:02;15.90;;;6.32;;
9789;SDS011;4934;50.852;8.098;2023-02-14T00:31:28;18.97;;;7.30;;
9789;SDS011;4934;50.852;8.098;2023-02-14T00:33:54;14.33;;;7.30;;
9789;SDS011;4934;50.852;8.098;2023-02-14T00:36:19;16.90;;;7.27;;
9789;SDS011;4934;50.852;8.098;2023-02-14T00:38:45;14.60;;;7.30;;
9789;SDS011;4934;50.852;8.098;2023-02-14T00:41:11;14.40;;;6.00;;
9789;SDS011;4934;50.852;8.098;2023-02-14T00:43:43;16.63;;;6.83;;
9789;SDS011;4934;50.852;8.098;2023-02-14T00:46:13;18.60;;;7.03;;
9789;SDS011;4934;50.852;8.098;2023-02-14T00:48:40;21.40;;;8.20;;
9789;SDS011;4934;50.852;8.098;2023-02-14T00:51:06;14.97;;;6.87;;
9789;SDS011;4934;50.852;8.098;2023-02-14T00:53:32;16.93;;;6.63;;
9789;SDS011;4934;50.852;8.098;2023-02-14T00:55:58;18.10;;;7.40;;
9789;SDS011;4934;50.852;8.098;2023-02-14T00:58:24;16.17;;;7.73;;
9789;SDS011;4934;50.852;8.098;2023-02-14T01:00:49;20.20;;;7.80;;
9789;SDS011;4934;50.852;8.098;2023-02-14T01:03:15;18.53;;;8.67;;
9789;SDS011;4934;50.852;8.098;2023-02-14T01:05:41;16.20;;;8.13;;
9789;SDS011;4934;50.852;8.098;2023-02-14T01:08:06;15.17;;;7.93;;
9789;SDS011;4934;50.852;8.098;2023-02-14T01:10:32;17.23;;;8.40;;
9789;SDS011;4934;50.852;8.098;2023-02-14T01:13:00;21.85;;;8.68;;
9789;SDS011;4934;50.852;8.098;2023-02-14T01:15:27;23.73;;;8.87;;
9789;SDS011;4934;50.852;8.098;2023-02-14T01:17:53;21.83;;;8.87;;
9789;SDS011;4934;50.852;8.098;2023-02-14T01:20:18;22.43;;;9.43;;
9789;SDS011;4934;50.852;8.098;2023-02-14T01:22:44;21.00;;;8.77;;
9789;SDS011;4934;50.852;8.098;2023-02-14T01:25:10;22.03;;;9.20;;
9789;SDS011;4934;50.852;8.098;2023-02-14T01:27:35;21.03;;;8.50;;
9789;SDS011;4934;50.852;8.098;2023-02-14T01:30:02;24.73;;;8.97;;
9789;SDS011;4934;50.852;8.098;2023-02-14T01:32:31;16.00;;;7.97;;
9789;SDS011;4934;50.852;8.098;2023-02-14T01:34:57;19.77;;;8.17;;
9789;SDS011;4934;50.852;8.098;2023-02-14T01:37:23;21.00;;;9.30;;
9789;SDS011;4934;50.852;8.098;2023-02-14T01:39:49;22.27;;;8.80;;
9789;SDS011;4934;50.852;8.098;2023-02-14T01:42:14;18.67;;;8.47;;
9789;SDS011;4934;50.852;8.098;2023-02-14T01:47:08;17.33;;;8.50;;
9789;SDS011;4934;50.852;8.098;2023-02-14T01:49:40;21.53;;;9.77;;
9789;SDS011;4934;50.852;8.098;2023-02-14T01:52:17;25.63;;;8.50;;
9789;SDS011;4934;50.852;8.098;2023-02-14T01:54:48;20.20;;;8.13;;
9789;SDS011;4934;50.852;8.098;2023-02-14T01:57:18;18.47;;;8.03;;
9789;SDS011;4934;50.852;8.098;2023-02-14T01:59:47;20.20;;;8.70;;
9789;SDS011;4934;50.852;8.098;2023-02-14T02:02:17;16.77;;;6.57;;
9789;SDS011;4934;50.852;8.098;2023-02-14T02:04:47;21.87;;;7.67;;
9789;SDS011;4934;50.852;8.098;2023-02-14T02:07:19;17.50;;;7.73;;
9789;SDS011;4934;50.852;8.098;2023-02-14T02:09:48;18.93;;;8.33;;
9789;SDS011;4934;50.852;8.098;2023-02-14T02:12:18;18.47;;;8.20;;
9789;SDS011;4934;50.852;8.098;2023-02-14T02:14:44;23.63;;;8.33;;
9789;SDS011;4934;50.852;8.098;2023-02-14T02:17:28;22.13;;;8.53;;
9789;SDS011;4934;50.852;8.098;2023-02-14T02:23:09;21.53;;;8.30;;
9789;SDS011;4934;50.852;8.098;2023-02-14T02:26:13;22.43;;;8.77;;
9789;SDS011;4934;50.852;8.098;2023-02-14T02:34:55;28.55;;;12.00;;
9789;SDS011;4934;50.852;8.098;2023-02-14T02:40:16;33.27;;;14.17;;
9789;SDS011;4934;50.852;8.098;2023-02-14T02:42:52;32.93;;;14.83;;
9789;SDS011;4934;50.852;8.098;2023-02-14T02:48:39;27.13;;;11.43;;
9789;SDS011;4934;50.852;8.098;2023-02-14T02:51:36;27.63;;;10.70;;
9789;SDS011;4934;50.852;8.098;2023-02-14T02:54:36;23.77;;;9.63;;
9789;SDS011;4934;50.852;8.098;2023-02-14T02:57:11;25.40;;;8.67;;
9789;SDS011;4934;50.852;8.098;2023-02-14T02:59:43;24.47;;;8.97;;
9789;SDS011;4934;50.852;8.098;2023-02-14T03:04:49;20.73;;;8.07;;
9789;SDS011;4934;50.852;8.098;2023-02-14T03:09:59;18.67;;;7.93;;
9789;SDS011;4934;50.852;8.098;2023-02-14T03:15:02;20.20;;;8.57;;
9789;SDS011;4934;50.852;8.098;2023-02-14T03:20:20;22.60;;;8.67;;
9789;SDS011;4934;50.852;8.098;2023-02-14T03:22:57;22.80;;;8.87;;
9789;SDS011;4934;50.852;8.098;2023-02-14T03:33:42;26.67;;;9.70;;
9789;SDS011;4934;50.852;8.098;2023-02-14T03:36:19;26.70;;;10.40;;
9789;SDS011;4934;50.852;8.098;2023-02-14T03:38:56;31.00;;;11.40;;
9789;SDS011;4934;50.852;8.098;2023-02-14T03:41:32;29.27;;;9.97;;
9789;SDS011;4934;50.852;8.098;2023-02-14T03:44:04;28.37;;;11.50;;
9789;SDS011;4934;50.852;8.098;2023-02-14T03:46:41;33.00;;;12.27;;
9789;SDS011;4934;50.852;8.098;2023-02-14T03:49:14;29.60;;;11.03;;
9789;SDS011;4934;50.852;8.098;2023-02-14T03:51:43;29.50;;;10.20;;
9789;SDS011;4934;50.852;8.098;2023-02-14T03:54:13;35.03;;;11.90;;
9789;SDS011;4934;50.852;8.098;2023-02-14T03:56:55;39.33;;;13.87;;
9789;SDS011;4934;50.852;8.098;2023-02-14T03:59:31;44.03;;;14.70;;
9789;SDS011;4934;50.852;8.098;2023-02-14T04:04:45;40.43;;;13.30;;
9789;SDS011;4934;50.852;8.098;2023-02-14T04:07:14;32.00;;;11.73;;
9789;SDS011;4934;50.852;8.098;2023-02-14T04:09:41;32.85;;;12.18;;
9789;SDS011;4934;50.852;8.098;2023-02-14T04:12:07;39.70;;;12.37;;
9789;SDS011;4934;50.852;8.098;2023-02-14T04:14:33;34.67;;;11.97;;
9789;SDS011;4934;50.852;8.098;2023-02-14T04:16:59;43.13;;;14.77;;
9789;SDS011;4934;50.852;8.098;2023-02-14T04:19:44;38.53;;;12.50;;
9789;SDS011;4934;50.852;8.098;2023-02-14T04:22:09;48.83;;;16.10;;
9789;SDS011;4934;50.852;8.098;2023-02-14T04:24:35;40.93;;;14.47;;
9789;SDS011;4934;50.852;8.098;2023-02-14T04:27:01;38.20;;;13.80;;
9789;SDS011;4934;50.852;8.098;2023-02-14T04:29:46;38.63;;;14.20;;
9789;SDS011;4934;50.852;8.098;2023-02-14T04:32:14;41.20;;;13.77;;
9789;SDS011;4934;50.852;8.098;2023-02-14T04:34:41;42.03;;;13.43;;
9789;SDS011;4934;50.852;8.098;2023-02-14T04:37:07;46.47;;;15.77;;
9789;SDS011;4934;50.852;8.098;2023-02-14T04:39:33;47.90;;;15.67;;
9789;SDS011;4934;50.852;8.098;2023-02-14T04:41:59;47.17;;;14.87;;
9789;SDS011;4934;50.852;8.098;2023-02-14T04:44:25;47.77;;;14.70;;
9789;SDS011;4934;50.852;8.098;2023-02-14T04:46:51;51.70;;;15.77;;
9789;SDS011;4934;50.852;8.098;2023-02-14T04:49:17;46.70;;;14.93;;
9789;SDS011;4934;50.852;8.098;2023-02-14T04:51:42;53.10;;;16.30;;
9789;SDS011;4934;50.852;8.098;2023-02-14T04:54:08;46.70;;;15.23;;
9789;SDS011;4934;50.852;8.098;2023-02-14T04:56:34;43.07;;;15.10;;
9789;SDS011;4934;50.852;8.098;2023-02-14T04:59:00;50.50;;;16.23;;
9789;SDS011;4934;50.852;8.098;2023-02-14T05:01:26;53.63;;;16.57;;
9789;SDS011;4934;50.852;8.098;2023-02-14T05:03:51;40.77;;;13.43;;
9789;SDS011;4934;50.852;8.098;2023-02-14T05:06:17;47.70;;;15.97;;
9789;SDS011;4934;50.852;8.098;2023-02-14T05:08:42;43.93;;;14.73;;
9789;SDS011;4934;50.852;8.098;2023-02-14T05:11:08;56.67;;;17.60;;
9789;SDS011;4934;50.852;8.098;2023-02-14T05:13:34;46.90;;;16.53;;
9789;SDS011;4934;50.852;8.098;2023-02-14T05:15:59;55.50;;;16.27;;
9789;SDS011;4934;50.852;8.098;2023-02-14T05:18:25;51.53;;;16.47;;
9789;SDS011;4934;50.852;8.098;2023-02-14T05:20:51;55.73;;;17.30;;
9789;SDS011;4934;50.852;8.098;2023-02-14T05:23:18;63.03;;;20.17;;
9789;SDS011;4934;50.852;8.098;2023-02-14T05:25:46;65.40;;;21.77;;
9789;SDS011;4934;50.852;8.098;2023-02-14T05:28:12;66.70;;;27.35;;
9789;SDS011;4934;50.852;8.098;2023-02-14T05:30:38;51.73;;;17.60;;
9789;SDS011;4934;50.852;8.098;2023-02-14T05:33:04;59.77;;;18.77;;
9789;SDS011;4934;50.852;8.098;2023-02-14T05:35:30;52.00;;;17.37;;
9789;SDS011;4934;50.852;8.098;2023-02-14T05:37:56;54.80;;;18.80;;
9789;SDS011;4934;50.852;8.098;2023-02-14T05:40:22;50.23;;;17.23;;
9789;SDS011;4934;50.852;8.098;2023-02-14T05:42:48;48.23;;;18.43;;
9789;SDS011;4934;50.852;8.098;2023-02-14T05:45:13;57.30;;;18.20;;
9789;SDS011;4934;50.852;8.098;2023-02-14T05:47:39;70.67;;;19.07;;
9789;SDS011;4934;50.852;8.098;2023-02-14T05:50:05;59.23;;;18.80;;
9789;SDS011;4934;50.852;8.098;2023-02-14T05:52:32;66.17;;;18.67;;
9789;SDS011;4934;50.852;8.098;2023-02-14T05:54:57;64.60;;;21.27;;
9789;SDS011;4934;50.852;8.098;2023-02-14T05:57:23;67.03;;;20.63;;
9789;SDS011;4934;50.852;8.098;2023-02-14T05:59:48;75.30;;;21.03;;
9789;SDS011;4934;50.852;8.098;2023-02-14T06:02:14;72.60;;;21.30;;
9789;SDS011;4934;50.852;8.098;2023-02-14T06:04:40;70.43;;;23.50;;
9789;SDS011;4934;50.852;8.098;2023-02-14T06:07:06;82.30;;;26.00;;
9789;SDS011;4934;50.852;8.098;2023-02-14T06:09:32;84.67;;;25.90;;
9789;SDS011;4934;50.852;8.098;2023-02-14T06:11:58;89.67;;;26.80;;
9789;SDS011;4934;50.852;8.098;2023-02-14T06:14:24;88.10;;;27.23;;
9789;SDS011;4934;50.852;8.098;2023-02-14T06:16:50;96.90;;;27.97;;
9789;SDS011;4934;50.852;8.098;2023-02-14T06:19:15;90.90;;;27.93;;
9789;SDS011;4934;50.852;8.098;2023-02-14T06:21:41;93.97;;;26.90;;
9789;SDS011;4934;50.852;8.098;2023-02-14T06:24:07;101.73;;;32.23;;
9789;SDS011;4934;50.852;8.098;2023-02-14T06:26:32;99.43;;;29.70;;
9789;SDS011;4934;50.852;8.098;2023-02-14T06:29:00;101.67;;;27.90;;
9789;SDS011;4934;50.852;8.098;2023-02-14T06:31:25;93.83;;;28.80;;
9789;SDS011;4934;50.852;8.098;2023-02-14T06:33:52;87.20;;;27.67;;
9789;SDS011;4934;50.852;8.098;2023-02-14T06:36:18;85.30;;;25.40;;
9789;SDS011;4934;50.852;8.098;2023-02-14T06:38:43;84.63;;;26.20;;
9789;SDS011;4934;50.852;8.098;2023-02-14T06:41:09;86.03;;;26.73;;
9789;SDS011;4934;50.852;8.098;2023-02-14T06:43:35;83.37;;;25.87;;
9789;SDS011;4934;50.852;8.098;2023-02-14T06:46:02;82.20;;;25.83;;
9789;SDS011;4934;50.852;8.098;2023-02-14T06:48:28;75.70;;;23.57;;
9789;SDS011;4934;50.852;8.098;2023-02-14T06:50:54;80.20;;;22.97;;
9789;SDS011;4934;50.852;8.098;2023-02-14T06:53:20;74.27;;;22.87;;
9789;SDS011;4934;50.852;8.098;2023-02-14T06:55:46;75.10;;;23.20;;
9789;SDS011;4934;50.852;8.098;2023-02-14T06:58:11;71.70;;;23.70;;
9789;SDS011;4934;50.852;8.098;2023-02-14T07:00:37;68.73;;;20.87;;
9789;SDS011;4934;50.852;8.098;2023-02-14T07:03:04;61.73;;;20.60;;
9789;SDS011;4934;50.852;8.098;2023-02-14T07:05:30;63.97;;;21.37;;
9789;SDS011;4934;50.852;8.098;2023-02-14T07:07:57;66.17;;;20.93;;
9789;SDS011;4934;50.852;8.098;2023-02-14T07:10:22;55.80;;;18.37;;
9789;SDS011;4934;50.852;8.098;2023-02-14T07:12:48;58.50;;;18.87;;
9789;SDS011;4934;50.852;8.098;2023-02-14T07:15:14;54.27;;;19.53;;
9789;SDS011;4934;50.852;8.098;2023-02-14T07:17:40;59.13;;;19.70;;
9789;SDS011;4934;50.852;8.098;2023-02-14T07:20:06;56.07;;;18.10;;
9789;SDS011;4934;50.852;8.098;2023-02-14T07:22:33;65.23;;;19.63;;
9789;SDS011;4934;50.852;8.098;2023-02-14T07:24:59;58.50;;;19.17;;
9789;SDS011;4934;50.852;8.098;2023-02-14T07:27:24;65.37;;;19.10;;
9789;SDS011;4934;50.852;8.098;2023-02-14T07:29:50;64.47;;;18.73;;
9789;SDS011;4934;50.852;8.098;2023-02-14T07:32:16;56.97;;;18.13;;
9789;SDS011;4934;50.852;8.098;2023-02-14T07:34:41;60.07;;;19.10;;
9789;SDS011;4934;50.852;8.098;2023-02-14T07:37:07;61.47;;;18.90;;
9789;SDS011;4934;50.852;8.098;2023-02-14T07:39:32;60.40;;;18.70;;
9789;SDS011;4934;50.852;8.098;2023-02-14T07:41:58;54.10;;;17.60;;
9789;SDS011;4934;50.852;8.098;2023-02-14T07:44:24;60.57;;;18.80;;
9789;SDS011;4934;50.852;8.098;2023-02-14T07:46:50;64.53;;;19.47;;
9789;SDS011;4934;50.852;8.098;2023-02-14T07:49:15;58.60;;;18.87;;
9789;SDS011;4934;50.852;8.098;2023-02-14T07:51:41;69.00;;;21.50;;
9789;SDS011;4934;50.852;8.098;2023-02-14T07:54:06;58.37;;;20.47;;
9789;SDS011;4934;50.852;8.098;2023-02-14T07:56:32;60.93;;;21.23;;
9789;SDS011;4934;50.852;8.098;2023-02-14T07:58:58;65.30;;;22.10;;
9789;SDS011;4934;50.852;8.098;2023-02-14T08:01:23;65.07;;;20.37;;
9789;SDS011;4934;50.852;8.098;2023-02-14T08:03:49;66.43;;;20.13;;
9789;SDS011;4934;50.852;8.098;2023-02-14T08:06:16;62.07;;;22.57;;
9789;SDS011;4934;50.852;8.098;2023-02-14T08:08:43;71.17;;;22.13;;
9789;SDS011;4934;50.852;8.098;2023-02-14T08:11:09;73.07;;;22.17;;
9789;SDS011;4934;50.852;8.098;2023-02-14T08:13:35;67.67;;;20.03;;
9789;SDS011;4934;50.852;8.098;2023-02-14T08:16:00;72.93;;;21.10;;
9789;SDS011;4934;50.852;8.098;2023-02-14T08:18:29;56.83;;;19.92;;
9789;SDS011;4934;50.852;8.098;2023-02-14T08:21:05;64.40;;;21.83;;
9789;SDS011;4934;50.852;8.098;2023-02-14T08:23:33;77.53;;;25.30;;
9789;SDS011;4934;50.852;8.098;2023-02-14T08:25:59;75.23;;;23.30;;
9789;SDS011;4934;50.852;8.098;2023-02-14T08:28:25;76.77;;;22.83;;
9789;SDS011;4934;50.852;8.098;2023-02-14T08:30:51;68.83;;;22.73;;
9789;SDS011;4934;50.852;8.098;2023-02-14T08:33:17;67.03;;;21.47;;
9789;SDS011;4934;50.852;8.098;2023-02-14T08:35:44;67.00;;;22.23;;
9789;SDS011;4934;50.852;8.098;2023-02-14T08:40:38;63.78;;;20.15;;
9789;SDS011;4934;50.852;8.098;2023-02-14T08:43:04;63.90;;;19.60;;
9789;SDS011;4934;50.852;8.098;2023-02-14T08:45:30;64.40;;;20.85;;
9789;SDS011;4934;50.852;8.098;2023-02-14T08:48:03;64.13;;;19.42;;
9789;SDS011;4934;50.852;8.098;2023-02-14T08:50:30;56.40;;;17.80;;
9789;SDS011;4934;50.852;8.098;2023-02-14T08:52:56;58.47;;;18.70;;
9789;SDS011;4934;50.852;8.098;2023-02-14T08:55:22;62.38;;;19.88;;
9789;SDS011;4934;50.852;8.098;2023-02-14T08:57:47;62.30;;;18.97;;
9789;SDS011;4934;50.852;8.098;2023-02-14T09:00:13;57.90;;;17.17;;
9789;SDS011;4934;50.852;8.098;2023-02-14T09:02:39;51.88;;;17.08;;
9789;SDS011;4934;50.852;8.098;2023-02-14T09:05:05;56.10;;;19.38;;
9789;SDS011;4934;50.852;8.098;2023-02-14T09:07:33;49.30;;;17.42;;
9789;SDS011;4934;50.852;8.098;2023-02-14T09:09:59;50.97;;;17.65;;
9789;SDS011;4934;50.852;8.098;2023-02-14T09:12:25;49.88;;;17.02;;
9789;SDS011;4934;50.852;8.098;2023-02-14T09:14:51;52.92;;;17.38;;
9789;SDS011;4934;50.852;8.098;2023-02-14T09:17:16;50.50;;;17.50;;
9789;SDS011;4934;50.852;8.098;2023-02-14T09:19:42;46.67;;;16.40;;
9789;SDS011;4934;50.852;8.098;2023-02-14T09:22:08;48.95;;;15.45;;
9789;SDS011;4934;50.852;8.098;2023-02-14T09:24:36;45.10;;;15.63;;
9789;SDS011;4934;50.852;8.098;2023-02-14T09:27:02;50.80;;;16.80;;
9789;SDS011;4934;50.852;8.098;2023-02-14T09:29:29;49.22;;;17.38;;
9789;SDS011;4934;50.852;8.098;2023-02-14T09:31:55;47.35;;;17.67;;
9789;SDS011;4934;50.852;8.098;2023-02-14T09:34:22;48.13;;;15.95;;
9789;SDS011;4934;50.852;8.098;2023-02-14T09:37:08;41.83;;;14.40;;
9789;SDS011;4934;50.852;8.098;2023-02-14T09:39:35;38.92;;;15.57;;
9789;SDS011;4934;50.852;8.098;2023-02-14T09:47:05;38.25;;;14.55;;
9789;SDS011;4934;50.852;8.098;2023-02-14T09:49:54;37.08;;;13.68;;
9789;SDS011;4934;50.852;8.098;2023-02-14T09:52:21;38.28;;;14.38;;
9789;SDS011;4934;50.852;8.098;2023-02-14T09:54:52;38.40;;;13.32;;
9789;SDS011;4934;50.852;8.098;2023-02-14T10:05:20;34.38;;;15.45;;
9789;SDS011;4934;50.852;8.098;2023-02-14T10:10:47;32.92;;;12.68;;
9789;SDS011;4934;50.852;8.098;2023-02-14T10:13:29;32.15;;;14.55;;
9789;SDS011;4934;50.852;8.098;2023-02-14T10:16:02;36.20;;;14.23;;
9789;SDS011;4934;50.852;8.098;2023-02-14T10:21:23;34.08;;;13.20;;
9789;SDS011;4934;50.852;8.098;2023-02-14T10:23:55;32.65;;;13.02;;
9789;SDS011;4934;50.852;8.098;2023-02-14T10:26:32;32.90;;;12.13;;
9789;SDS011;4934;50.852;8.098;2023-02-14T10:29:01;35.55;;;12.50;;
9789;SDS011;4934;50.852;8.098;2023-02-14T10:37:23;33.35;;;13.63;;
9789;SDS011;4934;50.852;8.098;2023-02-14T10:40:04;32.92;;;11.95;;
9789;SDS011;4934;50.852;8.098;2023-02-14T10:42:55;27.58;;;11.85;;
9789;SDS011;4934;50.852;8.098;2023-02-14T10:48:28;28.00;;;11.27;;
9789;SDS011;4934;50.852;8.098;2023-02-14T10:51:36;31.15;;;11.38;;
9789;SDS011;4934;50.852;8.098;2023-02-14T10:56:53;31.13;;;12.10;;
9789;SDS011;4934;50.852;8.098;2023-02-14T10:59:26;30.70;;;12.07;;
9789;SDS011;4934;50.852;8.098;2023-02-14T11:02:14;28.13;;;12.23;;
9789;SDS011;4934;50.852;8.098;2023-02-14T11:04:42;28.10;;;12.52;;
9789;SDS011;4934;50.852;8.098;2023-02-14T11:07:14;25.73;;;10.55;;
9789;SDS011;4934;50.852;8.098;2023-02-14T11:09:45;26.67;;;10.50;;
9789;SDS011;4934;50.852;8.098;2023-02-14T11:12:11;26.98;;;11.48;;
9789;SDS011;4934;50.852;8.098;2023-02-14T11:15:19;25.45;;;10.60;;
9789;SDS011;4934;50.852;8.098;2023-02-14T11:18:25;22.52;;;9.35;;
9789;SDS011;4934;50.852;8.098;2023-02-14T11:21:01;25.05;;;9.48;;
9789;SDS011;4934;50.852;8.098;2023-02-14T11:23:44;40.10;;;10.13;;
9789;SDS011;4934;50.852;8.098;2023-02-14T11:31:27;23.65;;;10.23;;
9789;SDS011;4934;50.852;8.098;2023-02-14T11:33:55;26.40;;;10.32;;
9789;SDS011;4934;50.852;8.098;2023-02-14T11:36:22;21.30;;;9.40;;
9789;SDS011;4934;50.852;8.098;2023-02-14T11:41:45;21.73;;;9.10;;
9789;SDS011;4934;50.852;8.098;2023-02-14T11:44:19;24.52;;;10.38;;
9789;SDS011;4934;50.852;8.098;2023-02-14T11:46:48;20.05;;;8.35;;
9789;SDS011;4934;50.852;8.098;2023-02-14T11:49:36;22.65;;;8.95;;
9789;SDS011;4934;50.852;8.098;2023-02-14T11:52:08;21.70;;;9.65;;
9789;SDS011;4934;50.852;8.098;2023-02-14T11:54:39;21.60;;;8.98;;
9789;SDS011;4934;50.852;8.098;2023-02-14T11:57:12;23.50;;;8.75;;
9789;SDS011;4934;50.852;8.098;2023-02-14T11:59:48;21.17;;;8.57;;
9789;SDS011;4934;50.852;8.098;2023-02-14T12:07:56;20.75;;;8.57;;
9789;SDS011;4934;50.852;8.098;2023-02-14T12:10:25;21.98;;;9.15;;
9789;SDS011;4934;50.852;8.098;2023-02-14T12:13:00;24.13;;;8.85;;
9789;SDS011;4934;50.852;8.098;2023-02-14T12:23:53;21.30;;;8.95;;
9789;SDS011;4934;50.852;8.098;2023-02-14T12:26:35;20.20;;;8.50;;
9789;SDS011;4934;50.852;8.098;2023-02-14T12:31:50;20.48;;;8.90;;
9789;SDS011;4934;50.852;8.098;2023-02-14T12:34:17;22.88;;;8.75;;
9789;SDS011;4934;50.852;8.098;2023-02-14T12:37:00;23.05;;;9.20;;
9789;SDS011;4934;50.852;8.098;2023-02-14T12:47:57;25.95;;;9.05;;
9789;SDS011;4934;50.852;8.098;2023-02-14T12:50:28;20.58;;;9.00;;
9789;SDS011;4934;50.852;8.098;2023-02-14T12:56:06;22.90;;;9.35;;
9789;SDS011;4934;50.852;8.098;2023-02-14T13:04:47;17.38;;;8.45;;
9789;SDS011;4934;50.852;8.098;2023-02-14T13:15:41;21.20;;;9.75;;
9789;SDS011;4934;50.852;8.098;2023-02-14T13:18:15;19.70;;;9.05;;
9789;SDS011;4934;50.852;8.098;2023-02-14T13:20:57;20.92;;;8.68;;
9789;SDS011;4934;50.852;8.098;2023-02-14T13:25:53;21.77;;;10.02;;
9789;SDS011;4934;50.852;8.098;2023-02-14T13:28:24;17.05;;;8.95;;
9789;SDS011;4934;50.852;8.098;2023-02-14T13:30:52;19.48;;;8.70;;
9789;SDS011;4934;50.852;8.098;2023-02-14T13:33:36;21.65;;;8.60;;
9789;SDS011;4934;50.852;8.098;2023-02-14T13:36:09;20.58;;;8.40;;
9789;SDS011;4934;50.852;8.098;2023-02-14T13:38:47;18.55;;;8.70;;
9789;SDS011;4934;50.852;8.098;2023-02-14T13:41:15;18.63;;;8.20;;
9789;SDS011;4934;50.852;8.098;2023-02-14T13:46:17;21.60;;;9.05;;
9789;SDS011;4934;50.852;8.098;2023-02-14T13:49:00;20.17;;;9.38;;
9789;SDS011;4934;50.852;8.098;2023-02-14T13:51:57;19.60;;;8.48;;
9789;SDS011;4934;50.852;8.098;2023-02-14T13:54:46;17.58;;;7.68;;
9789;SDS011;4934;50.852;8.098;2023-02-14T14:02:42;18.48;;;9.07;;
9789;SDS011;4934;50.852;8.098;2023-02-14T14:18:51;17.25;;;8.00;;
9789;SDS011;4934;50.852;8.098;2023-02-14T14:21:33;17.02;;;8.07;;
9789;SDS011;4934;50.852;8.098;2023-02-14T14:26:45;17.30;;;7.68;;
9789;SDS011;4934;50.852;8.098;2023-02-14T14:29:17;22.70;;;10.60;;
9789;SDS011;4934;50.852;8.098;2023-02-14T14:31:43;16.50;;;7.75;;
9789;SDS011;4934;50.852;8.098;2023-02-14T14:34:18;17.00;;;7.57;;
9789;SDS011;4934;50.852;8.098;2023-02-14T14:36:46;18.27;;;7.90;;
9789;SDS011;4934;50.852;8.098;2023-02-14T14:39:14;20.23;;;8.13;;
9789;SDS011;4934;50.852;8.098;2023-02-14T14:44:16;15.48;;;7.00;;
9789;SDS011;4934;50.852;8.098;2023-02-14T14:46:42;15.32;;;7.78;;
9789;SDS011;4934;50.852;8.098;2023-02-14T14:49:08;17.15;;;8.35;;
9789;SDS011;4934;50.852;8.098;2023-02-14T14:51:36;17.42;;;8.02;;
9789;SDS011;4934;50.852;8.098;2023-02-14T14:54:06;20.38;;;8.57;;
9789;SDS011;4934;50.852;8.098;2023-02-14T14:56:45;20.92;;;9.00;;
9789;SDS011;4934;50.852;8.098;2023-02-14T14:59:16;17.55;;;7.93;;
9789;SDS011;4934;50.852;8.098;2023-02-14T15:01:53;15.68;;;7.75;;
9789;SDS011;4934;50.852;8.098;2023-02-14T15:04:24;17.90;;;8.25;;
9789;SDS011;4934;50.852;8.098;2023-02-14T15:06:53;16.40;;;7.82;;
9789;SDS011;4934;50.852;8.098;2023-02-14T15:09:22;17.40;;;8.13;;
9789;SDS011;4934;50.852;8.098;2023-02-14T15:11:54;15.65;;;7.72;;
9789;SDS011;4934;50.852;8.098;2023-02-14T15:14:41;18.48;;;7.88;;
9789;SDS011;4934;50.852;8.098;2023-02-14T15:17:31;17.25;;;8.13;;
9789;SDS011;4934;50.852;8.098;2023-02-14T15:20:00;15.68;;;7.28;;
9789;SDS011;4934;50.852;8.098;2023-02-14T15:25:10;18.20;;;8.73;;
9789;SDS011;4934;50.852;8.098;2023-02-14T15:27:40;17.65;;;8.68;;
9789;SDS011;4934;50.852;8.098;2023-02-14T15:30:29;22.25;;;8.90;;
9789;SDS011;4934;50.852;8.098;2023-02-14T15:32:54;17.23;;;7.63;;
9789;SDS011;4934;50.852;8.098;2023-02-14T15:35:25;18.80;;;8.25;;
9789;SDS011;4934;50.852;8.098;2023-02-14T15:37:54;20.83;;;9.13;;
9789;SDS011;4934;50.852;8.098;2023-02-14T15:40:23;18.67;;;8.15;;
9789;SDS011;4934;50.852;8.098;2023-02-14T15:42:55;16.42;;;7.85;;
9789;SDS011;4934;50.852;8.098;2023-02-14T15:45:29;20.67;;;8.55;;
9789;SDS011;4934;50.852;8.098;2023-02-14T15:47:59;19.02;;;8.43;;
9789;SDS011;4934;50.852;8.098;2023-02-14T15:50:30;18.20;;;9.20;;
9789;SDS011;4934;50.852;8.098;2023-02-14T15:53:03;17.52;;;7.97;;
9789;SDS011;4934;50.852;8.098;2023-02-14T15:55:32;19.63;;;8.93;;
9789;SDS011;4934;50.852;8.098;2023-02-14T15:58:03;18.13;;;8.32;;
9789;SDS011;4934;50.852;8.098;2023-02-14T16:00:30;18.50;;;8.20;;
9789;SDS011;4934;50.852;8.098;2023-02-14T16:02:59;21.25;;;8.13;;
9789;SDS011;4934;50.852;8.098;2023-02-14T16:05:29;18.25;;;8.32;;
9789;SDS011;4934;50.852;8.098;2023-02-14T16:07:59;19.88;;;8.18;;
9789;SDS011;4934;50.852;8.098;2023-02-14T16:10:36;19.13;;;8.15;;
9789;SDS011;4934;50.852;8.098;2023-02-14T16:15:55;18.60;;;8.15;;
9789;SDS011;4934;50.852;8.098;2023-02-14T16:23:40;21.52;;;9.30;;
9789;SDS011;4934;50.852;8.098;2023-02-14T16:26:08;26.08;;;10.68;;
9789;SDS011;4934;50.852;8.098;2023-02-14T16:28:34;20.65;;;8.98;;
9789;SDS011;4934;50.852;8.098;2023-02-14T16:31:03;19.75;;;9.05;;
9789;SDS011;4934;50.852;8.098;2023-02-14T16:33:35;21.27;;;9.13;;
9789;SDS011;4934;50.852;8.098;2023-02-14T16:36:07;28.17;;;10.15;;
9789;SDS011;4934;50.852;8.098;2023-02-14T16:38:43;19.38;;;7.45;;
9789;SDS011;4934;50.852;8.098;2023-02-14T16:41:14;19.17;;;9.05;;
9789;SDS011;4934;50.852;8.098;2023-02-14T16:43:41;21.17;;;8.30;;
9789;SDS011;4934;50.852;8.098;2023-02-14T16:46:09;21.48;;;9.02;;
9789;SDS011;4934;50.852;8.098;2023-02-14T16:48:37;19.63;;;7.65;;
9789;SDS011;4934;50.852;8.098;2023-02-14T16:51:02;22.77;;;9.20;;
9789;SDS011;4934;50.852;8.098;2023-02-14T16:53:28;24.83;;;10.30;;
9789;SDS011;4934;50.852;8.098;2023-02-14T16:55:55;21.53;;;8.93;;
9789;SDS011;4934;50.852;8.098;2023-02-14T16:58:22;20.60;;;8.13;;
9789;SDS011;4934;50.852;8.098;2023-02-14T17:00:53;20.87;;;8.30;;
9789;SDS011;4934;50.852;8.098;2023-02-14T17:03:19;27.00;;;9.13;;
9789;SDS011;4934;50.852;8.098;2023-02-14T17:05:45;21.50;;;9.10;;
9789;SDS011;4934;50.852;8.098;2023-02-14T17:08:11;24.33;;;9.97;;
9789;SDS011;4934;50.852;8.098;2023-02-14T17:10:39;22.10;;;9.10;;
9789;SDS011;4934;50.852;8.098;2023-02-14T17:13:05;24.57;;;9.63;;
9789;SDS011;4934;50.852;8.098;2023-02-14T17:15:31;25.23;;;9.53;;
9789;SDS011;4934;50.852;8.098;2023-02-14T17:17:59;25.63;;;10.57;;
9789;SDS011;4934;50.852;8.098;2023-02-14T17:20:28;26.27;;;10.27;;
9789;SDS011;4934;50.852;8.098;2023-02-14T17:22:54;28.00;;;11.00;;
9789;SDS011;4934;50.852;8.098;2023-02-14T17:25:21;25.90;;;10.43;;
9789;SDS011;4934;50.852;8.098;2023-02-14T17:27:47;23.57;;;10.57;;
9789;SDS011;4934;50.852;8.098;2023-02-14T17:30:13;31.87;;;12.90;;
9789;SDS011;4934;50.852;8.098;2023-02-14T17:32:39;29.37;;;12.00;;
9789;SDS011;4934;50.852;8.098;2023-02-14T17:35:06;46.23;;;21.40;;
9789;SDS011;4934;50.852;8.098;2023-02-14T17:37:33;24.20;;;10.13;;
9789;SDS011;4934;50.852;8.098;2023-02-14T17:39:59;30.30;;;10.90;;
9789;SDS011;4934;50.852;8.098;2023-02-14T17:42:25;30.20;;;11.30;;
9789;SDS011;4934;50.852;8.098;2023-02-14T17:44:51;26.80;;;11.10;;
9789;SDS011;4934;50.852;8.098;2023-02-14T17:47:16;52.00;;;18.93;;
9789;SDS011;4934;50.852;8.098;2023-02-14T17:49:43;37.13;;;16.30;;
9789;SDS011;4934;50.852;8.098;2023-02-14T17:52:11;36.75;;;14.95;;
9789;SDS011;4934;50.852;8.098;2023-02-14T17:54:37;39.90;;;18.93;;